createdAt,value
2022-08-11T00:00:15.474Z,0.00
2022-08-11T00:01:15.419Z,0.00
2022-08-11T00:02:15.589Z,0.00
2022-08-11T00:03:15.573Z,0.00
2022-08-11T00:04:15.402Z,0.00
2022-08-11T00:05:15.373Z,0.00
2022-08-11T00:06:15.378Z,0.00
2022-08-11T00:07:15.388Z,0.00
2022-08-11T00:08:15.388Z,0.00
2022-08-11T00:09:15.330Z,0.00
2022-08-11T00:10:15.312Z,0.00
2022-08-11T00:11:15.354Z,0.00
2022-08-11T00:12:15.300Z,0.00
2022-08-11T00:13:15.291Z,0.00
2022-08-11T00:14:15.272Z,0.00
2022-08-11T00:15:15.267Z,0.00
2022-08-11T00:16:15.287Z,0.00
2022-08-11T00:17:15.260Z,0.00
2022-08-11T00:18:15.221Z,0.00
2022-08-11T00:19:15.262Z,0.00
2022-08-11T00:20:16.908Z,0.00
2022-08-11T00:21:15.219Z,0.00
2022-08-11T00:22:15.226Z,0.00
2022-08-11T00:23:18.235Z,0.00
2022-08-11T00:24:15.176Z,0.00
2022-08-11T00:25:15.146Z,0.00
2022-08-11T00:26:15.143Z,0.00
2022-08-11T00:27:15.120Z,0.00
2022-08-11T00:28:15.158Z,0.00
2022-08-11T00:29:15.129Z,0.00
2022-08-11T00:30:15.129Z,0.00
2022-08-11T00:31:15.084Z,0.00
2022-08-11T00:32:15.080Z,0.00
2022-08-11T00:33:15.054Z,0.00
2022-08-11T00:34:15.106Z,0.00
2022-08-11T00:35:55.749Z,0.00
2022-08-11T00:36:16.042Z,0.00
2022-08-11T00:37:15.026Z,0.00
2022-08-11T00:38:15.033Z,0.00
2022-08-11T00:39:15.106Z,0.00
2022-08-11T00:40:15.002Z,0.00
2022-08-11T00:41:15.040Z,0.00
2022-08-11T00:42:14.957Z,0.00
2022-08-11T00:43:20.019Z,0.00
2022-08-11T00:44:15.994Z,0.00
2022-08-11T00:45:14.926Z,0.00
2022-08-11T00:46:14.920Z,0.00
2022-08-11T00:47:14.915Z,0.00
2022-08-11T00:48:14.895Z,0.00
2022-08-11T00:49:14.925Z,0.00
2022-08-11T00:50:14.869Z,0.00
2022-08-11T00:51:14.870Z,0.00
2022-08-11T00:52:14.864Z,0.00
2022-08-11T00:53:14.849Z,0.00
2022-08-11T00:54:14.833Z,0.00
2022-08-11T00:55:14.841Z,0.00
2022-08-11T00:56:14.800Z,0.00
2022-08-11T00:57:37.182Z,0.00
2022-08-11T00:58:22.477Z,0.00
2022-08-11T00:59:34.943Z,0.00
2022-08-11T01:00:15.756Z,0.00
2022-08-11T01:01:14.795Z,0.00
2022-08-11T01:02:14.735Z,0.00
2022-08-11T01:03:14.721Z,0.00
2022-08-11T01:04:14.743Z,0.00
2022-08-11T01:05:14.705Z,0.00
2022-08-11T01:06:14.701Z,0.00
2022-08-11T01:07:14.696Z,0.00
2022-08-11T01:08:14.715Z,0.00
2022-08-11T01:09:22.388Z,0.00
2022-08-11T01:10:15.643Z,0.00
2022-08-11T01:11:14.646Z,0.00
2022-08-11T01:12:14.653Z,0.00
2022-08-11T01:13:14.608Z,0.00
2022-08-11T01:14:14.624Z,0.00
2022-08-11T01:15:14.618Z,0.00
2022-08-11T01:16:14.578Z,0.00
2022-08-11T01:17:14.577Z,0.00
2022-08-11T01:18:14.592Z,0.00
2022-08-11T01:19:14.599Z,0.00
2022-08-11T01:20:46.492Z,0.00
2022-08-11T01:21:15.533Z,0.00
2022-08-11T01:22:14.519Z,0.00
2022-08-11T01:23:15.829Z,0.00
2022-08-11T01:24:14.532Z,0.00
2022-08-11T01:25:14.489Z,0.00
2022-08-11T01:26:14.481Z,0.00
2022-08-11T01:27:19.022Z,0.00
2022-08-11T01:28:15.482Z,0.00
2022-08-11T01:29:14.429Z,0.00
2022-08-11T01:30:14.471Z,0.00
2022-08-11T01:31:14.440Z,0.00
2022-08-11T01:32:14.421Z,0.00
2022-08-11T01:33:14.390Z,0.00
2022-08-11T01:34:14.383Z,0.00
2022-08-11T01:35:14.362Z,0.00
2022-08-11T01:36:14.398Z,0.00
2022-08-11T01:37:14.369Z,0.00
2022-08-11T01:38:14.373Z,0.00
2022-08-11T01:39:18.429Z,0.00
2022-08-11T01:40:14.335Z,0.00
2022-08-11T01:41:14.297Z,0.00
2022-08-11T01:42:14.414Z,0.00
2022-08-11T01:43:14.314Z,0.00
2022-08-11T01:44:14.265Z,0.00
2022-08-11T01:45:14.282Z,0.00
2022-08-11T01:46:14.267Z,0.00
2022-08-11T01:47:14.282Z,0.00
2022-08-11T01:48:14.242Z,0.00
2022-08-11T01:50:06.827Z,0.00
2022-08-11T01:50:15.227Z,0.00
2022-08-11T01:51:17.187Z,0.00
2022-08-11T01:52:14.214Z,0.00
2022-08-11T01:53:14.167Z,0.00
2022-08-11T01:54:14.187Z,0.00
2022-08-11T01:55:14.174Z,0.00
2022-08-11T01:56:14.139Z,0.00
2022-08-11T01:57:14.136Z,0.00
2022-08-11T01:58:14.108Z,0.00
2022-08-11T01:59:14.199Z,0.00
2022-08-11T02:00:14.090Z,0.00
2022-08-11T02:01:14.148Z,0.00
2022-08-11T02:02:20.609Z,0.00
2022-08-11T02:03:15.098Z,0.00
2022-08-11T02:04:14.083Z,0.00
2022-08-11T02:05:14.100Z,0.00
2022-08-11T02:06:14.051Z,0.00
2022-08-11T02:07:14.011Z,0.00
2022-08-11T02:08:14.060Z,0.00
2022-08-11T02:09:13.987Z,0.00
2022-08-11T02:10:13.980Z,0.00
2022-08-11T02:11:14.130Z,0.00
2022-08-11T02:12:13.988Z,0.00
2022-08-11T02:13:14.025Z,0.00
2022-08-11T02:14:13.945Z,0.00
2022-08-11T02:15:13.929Z,0.00
2022-08-11T02:16:13.921Z,0.00
2022-08-11T02:17:13.938Z,0.00
2022-08-11T02:18:13.904Z,0.00
2022-08-11T02:19:13.917Z,0.00
2022-08-11T02:20:13.886Z,0.00
2022-08-11T02:21:13.853Z,0.00
2022-08-11T02:22:13.861Z,0.00
2022-08-11T02:23:13.876Z,0.00
2022-08-11T02:24:14.833Z,0.00
2022-08-11T02:25:13.819Z,0.00
2022-08-11T02:26:13.799Z,0.00
2022-08-11T02:27:13.832Z,0.00
2022-08-11T02:28:13.810Z,0.00
2022-08-11T02:29:13.795Z,0.00
2022-08-11T02:30:13.762Z,0.00
2022-08-11T02:31:15.517Z,0.00
2022-08-11T02:32:29.886Z,0.00
2022-08-11T02:33:14.743Z,0.00
2022-08-11T02:34:13.733Z,0.00
2022-08-11T02:35:13.739Z,0.00
2022-08-11T02:36:13.702Z,0.00
2022-08-11T02:37:13.701Z,0.00
2022-08-11T02:38:13.716Z,0.00
2022-08-11T02:39:13.717Z,0.00
2022-08-11T02:40:13.681Z,0.00
2022-08-11T02:41:13.640Z,0.00
2022-08-11T02:42:34.915Z,0.00
2022-08-11T02:43:14.649Z,0.00
2022-08-11T02:44:13.610Z,0.00
2022-08-11T02:45:13.595Z,0.00
2022-08-11T02:46:17.970Z,0.00
2022-08-11T02:47:13.573Z,0.00
2022-08-11T02:48:13.574Z,0.00
2022-08-11T02:49:13.541Z,0.00
2022-08-11T02:50:13.661Z,0.00
2022-08-11T02:51:13.562Z,0.00
2022-08-11T02:52:13.509Z,0.00
2022-08-11T02:53:13.542Z,0.00
2022-08-11T02:54:13.520Z,0.00
2022-08-11T02:55:13.526Z,0.00
2022-08-11T02:56:14.505Z,0.00
2022-08-11T02:57:13.461Z,0.00
2022-08-11T02:58:13.445Z,0.00
2022-08-11T02:59:13.457Z,0.00
2022-08-11T03:00:13.459Z,0.00
2022-08-11T03:01:13.511Z,0.00
2022-08-11T03:02:13.494Z,0.00
2022-08-11T03:03:13.414Z,0.00
2022-08-11T03:04:13.424Z,0.00
2022-08-11T03:05:13.380Z,0.00
2022-08-11T03:06:13.354Z,0.00
2022-08-11T03:07:28.811Z,0.00
2022-08-11T03:08:14.334Z,0.00
2022-08-11T03:09:13.358Z,0.00
2022-08-11T03:10:13.337Z,0.00
2022-08-11T03:11:13.295Z,0.00
2022-08-11T03:12:13.285Z,0.00
2022-08-11T03:13:14.229Z,0.00
2022-08-11T03:14:13.274Z,0.00
2022-08-11T03:15:13.297Z,0.00
2022-08-11T03:16:13.253Z,0.00
2022-08-11T03:17:13.230Z,0.00
2022-08-11T03:18:13.266Z,0.00
2022-08-11T03:19:13.225Z,0.00
2022-08-11T03:20:13.235Z,0.00
2022-08-11T03:21:13.196Z,0.00
2022-08-11T03:22:13.203Z,0.00
2022-08-11T03:23:19.861Z,0.00
2022-08-11T03:24:14.180Z,0.00
2022-08-11T03:25:13.273Z,0.00
2022-08-11T03:26:13.130Z,0.00
2022-08-11T03:27:13.182Z,0.00
2022-08-11T03:28:13.127Z,0.00
2022-08-11T03:29:13.097Z,0.00
2022-08-11T03:30:14.109Z,0.00
2022-08-11T03:31:13.469Z,0.00
2022-08-11T03:32:13.067Z,0.00
2022-08-11T03:33:13.075Z,0.00
2022-08-11T03:34:13.043Z,0.00
2022-08-11T03:35:16.932Z,0.00
2022-08-11T03:36:14.138Z,0.00
2022-08-11T03:37:16.764Z,0.00
2022-08-11T03:38:13.007Z,0.00
2022-08-11T03:39:13.064Z,0.00
2022-08-11T03:40:12.976Z,0.00
2022-08-11T03:41:50.037Z,0.00
2022-08-11T03:42:13.984Z,0.00
2022-08-11T03:43:12.942Z,0.00
2022-08-11T03:44:12.948Z,0.00
2022-08-11T03:45:12.939Z,0.00
2022-08-11T03:46:13.005Z,0.00
2022-08-11T03:47:12.915Z,0.00
2022-08-11T03:48:12.901Z,0.00
2022-08-11T03:49:12.930Z,0.00
2022-08-11T03:50:13.919Z,0.00
2022-08-11T03:51:13.244Z,0.00
2022-08-11T03:52:13.518Z,0.00
2022-08-11T03:53:12.946Z,0.00
2022-08-11T03:54:15.486Z,0.00
2022-08-11T03:55:13.172Z,0.00
2022-08-11T03:56:13.284Z,0.00
2022-08-11T03:57:13.660Z,0.00
2022-08-11T03:58:13.096Z,0.00
2022-08-11T03:59:13.713Z,0.00
2022-08-11T04:00:12.865Z,0.00
2022-08-11T04:01:13.184Z,0.00
2022-08-11T04:02:19.777Z,0.00
2022-08-11T04:03:13.373Z,0.00
2022-08-11T04:04:13.965Z,0.00
2022-08-11T04:05:21.382Z,0.00
2022-08-11T04:06:13.411Z,0.00
2022-08-11T04:07:17.575Z,0.00
2022-08-11T04:08:13.325Z,0.00
2022-08-11T04:09:13.823Z,0.00
2022-08-11T04:10:13.800Z,0.00
2022-08-11T04:11:37.956Z,0.00
2022-08-11T04:12:35.906Z,0.00
2022-08-11T04:13:16.390Z,0.00
2022-08-11T04:14:13.577Z,0.00
2022-08-11T04:15:13.617Z,0.00
2022-08-11T04:16:13.322Z,0.00
2022-08-11T04:17:14.881Z,0.00
2022-08-11T04:18:12.942Z,0.00
2022-08-11T04:19:13.304Z,0.00
2022-08-11T04:20:12.962Z,0.00
2022-08-11T04:21:12.746Z,0.00
2022-08-11T04:22:13.422Z,0.00
2022-08-11T04:24:35.193Z,0.00
2022-08-11T04:24:38.270Z,0.00
2022-08-11T04:25:14.090Z,0.00
2022-08-11T04:26:18.580Z,0.00
2022-08-11T04:27:14.353Z,0.00
2022-08-11T04:28:28.550Z,0.00
2022-08-11T04:29:17.626Z,0.00
2022-08-11T04:30:13.482Z,0.00
2022-08-11T04:31:13.903Z,0.00
2022-08-11T04:32:14.610Z,0.00
2022-08-11T04:33:27.065Z,0.00
2022-08-11T04:34:13.659Z,0.00
2022-08-11T04:35:14.121Z,0.00
2022-08-11T04:36:12.650Z,0.00
2022-08-11T04:37:14.074Z,0.00
2022-08-11T04:38:12.434Z,0.00
2022-08-11T04:39:13.506Z,0.00
2022-08-11T04:40:13.388Z,5.62
2022-08-11T04:41:13.049Z,5.62
2022-08-11T04:42:15.138Z,5.62
2022-08-11T04:43:19.944Z,5.62
2022-08-11T04:44:23.362Z,5.62
2022-08-11T04:45:12.760Z,5.62
2022-08-11T04:46:15.084Z,5.62
2022-08-11T04:47:13.009Z,5.62
2022-08-11T04:48:12.299Z,5.62
2022-08-11T04:49:12.230Z,5.62
2022-08-11T04:50:13.241Z,5.62
2022-08-11T04:51:17.210Z,5.62
2022-08-11T04:52:13.206Z,5.62
2022-08-11T04:53:12.186Z,5.62
2022-08-11T04:54:12.164Z,5.62
2022-08-11T04:55:12.178Z,5.62
2022-08-11T04:56:12.207Z,5.62
2022-08-11T04:57:12.125Z,5.62
2022-08-11T04:58:12.133Z,5.62
2022-08-11T04:59:12.127Z,5.62
2022-08-11T05:00:12.103Z,5.62
2022-08-11T05:01:12.215Z,5.62
2022-08-11T05:02:16.990Z,5.62
2022-08-11T05:03:13.074Z,5.62
2022-08-11T05:04:20.063Z,5.62
2022-08-11T05:05:12.063Z,5.62
2022-08-11T05:06:12.077Z,5.62
2022-08-11T05:07:12.058Z,5.62
2022-08-11T05:08:12.055Z,5.62
2022-08-11T05:09:12.007Z,5.62
2022-08-11T05:10:11.999Z,5.62
2022-08-11T05:11:12.004Z,5.62
2022-08-11T05:12:12.030Z,5.62
2022-08-11T05:13:11.964Z,5.62
2022-08-11T05:14:11.942Z,5.62
2022-08-11T05:15:12.047Z,5.62
2022-08-11T05:16:11.939Z,5.62
2022-08-11T05:17:11.913Z,5.62
2022-08-11T05:18:11.923Z,5.62
2022-08-11T05:19:11.904Z,5.62
2022-08-11T05:20:11.973Z,11.25
2022-08-11T05:21:11.893Z,11.25
2022-08-11T05:22:11.888Z,11.25
2022-08-11T05:23:11.861Z,11.25
2022-08-11T05:24:11.887Z,11.25
2022-08-11T05:25:11.823Z,11.25
2022-08-11T05:26:47.502Z,11.25
2022-08-11T05:27:14.008Z,11.25
2022-08-11T05:28:11.825Z,11.25
2022-08-11T05:29:20.537Z,11.25
2022-08-11T05:30:12.764Z,11.25
2022-08-11T05:31:11.815Z,11.25
2022-08-11T05:32:11.813Z,11.25
2022-08-11T05:33:11.799Z,11.25
2022-08-11T05:34:11.767Z,11.25
2022-08-11T05:35:59.687Z,11.25
2022-08-11T05:36:12.703Z,11.25
2022-08-11T05:37:26.055Z,11.25
2022-08-11T05:38:12.715Z,11.25
2022-08-11T05:39:11.730Z,11.25
2022-08-11T05:40:11.814Z,11.25
2022-08-11T05:41:11.666Z,11.25
2022-08-11T05:42:11.649Z,11.25
2022-08-11T05:43:12.636Z,11.25
2022-08-11T05:44:19.850Z,11.25
2022-08-11T05:45:15.729Z,11.25
2022-08-11T05:46:13.273Z,11.25
2022-08-11T05:47:11.585Z,11.25
2022-08-11T05:48:11.592Z,11.25
2022-08-11T05:49:11.756Z,11.25
2022-08-11T05:50:13.602Z,11.25
2022-08-11T05:51:11.541Z,11.25
2022-08-11T05:52:12.980Z,11.25
2022-08-11T05:53:12.515Z,11.25
2022-08-11T05:54:28.389Z,11.25
2022-08-11T05:55:12.527Z,11.25
2022-08-11T05:56:11.501Z,11.25
2022-08-11T05:57:50.040Z,11.25
2022-08-11T05:58:12.509Z,11.25
2022-08-11T05:59:11.463Z,11.25
2022-08-11T06:00:11.528Z,11.25
2022-08-11T06:01:11.529Z,11.25
2022-08-11T06:02:11.437Z,11.25
2022-08-11T06:03:11.459Z,11.25
2022-08-11T06:04:11.424Z,11.25
2022-08-11T06:05:11.373Z,11.25
2022-08-11T06:06:11.436Z,11.25
2022-08-11T06:07:11.371Z,11.25
2022-08-11T06:08:11.353Z,11.25
2022-08-11T06:09:11.357Z,11.25
2022-08-11T06:10:11.368Z,11.25
2022-08-11T06:11:11.306Z,11.25
2022-08-11T06:12:11.352Z,11.25
2022-08-11T06:13:11.362Z,11.25
2022-08-11T06:14:11.322Z,11.25
2022-08-11T06:15:11.293Z,11.25
2022-08-11T06:16:11.301Z,11.25
2022-08-11T06:17:11.248Z,11.25
2022-08-11T06:18:11.249Z,11.25
2022-08-11T06:19:11.224Z,11.25
2022-08-11T06:20:11.266Z,11.25
2022-08-11T06:21:11.275Z,11.25
2022-08-11T06:22:11.179Z,11.25
2022-08-11T06:23:11.186Z,11.25
2022-08-11T06:24:11.183Z,11.25
2022-08-11T06:25:11.201Z,16.88
2022-08-11T06:26:11.171Z,16.88
2022-08-11T06:27:13.127Z,16.88
2022-08-11T06:28:11.121Z,16.88
2022-08-11T06:29:11.115Z,16.88
2022-08-11T06:30:11.123Z,16.88
2022-08-11T06:31:11.100Z,16.88
2022-08-11T06:32:11.068Z,16.88
2022-08-11T06:33:11.053Z,16.88
2022-08-11T06:34:11.062Z,16.88
2022-08-11T06:35:11.054Z,16.88
2022-08-11T06:36:11.110Z,16.88
2022-08-11T06:37:11.040Z,16.88
2022-08-11T06:38:11.079Z,16.88
2022-08-11T06:39:11.057Z,16.88
2022-08-11T06:40:10.989Z,16.88
2022-08-11T06:41:10.999Z,16.88
2022-08-11T06:42:10.972Z,16.88
2022-08-11T06:43:10.976Z,16.88
2022-08-11T06:44:10.962Z,16.88
2022-08-11T06:45:10.930Z,16.88
2022-08-11T06:46:10.946Z,16.88
2022-08-11T06:47:10.950Z,11.25
2022-08-11T06:48:10.894Z,11.25
2022-08-11T06:49:11.180Z,11.25
2022-08-11T06:50:10.864Z,11.25
2022-08-11T06:51:10.872Z,11.25
2022-08-11T06:52:12.854Z,16.88
2022-08-11T06:53:11.838Z,16.88
2022-08-11T06:54:10.882Z,16.88
2022-08-11T06:55:55.596Z,16.88
2022-08-11T06:56:11.820Z,16.88
2022-08-11T06:57:29.796Z,16.88
2022-08-11T06:58:11.829Z,16.88
2022-08-11T06:59:10.764Z,16.88
2022-08-11T07:00:10.771Z,16.88
2022-08-11T07:01:10.820Z,16.88
2022-08-11T07:02:10.741Z,16.88
2022-08-11T07:03:10.736Z,16.88
2022-08-11T07:04:10.748Z,16.88
2022-08-11T07:05:10.696Z,16.88
2022-08-11T07:06:10.702Z,16.88
2022-08-11T07:07:10.673Z,16.88
2022-08-11T07:08:35.352Z,16.88
2022-08-11T07:09:11.671Z,16.88
2022-08-11T07:10:10.680Z,16.88
2022-08-11T07:11:10.630Z,16.88
2022-08-11T07:12:10.639Z,16.88
2022-08-11T07:13:10.676Z,16.88
2022-08-11T07:14:11.631Z,16.88
2022-08-11T07:15:10.616Z,16.88
2022-08-11T07:16:13.900Z,16.88
2022-08-11T07:17:10.570Z,16.88
2022-08-11T07:18:10.574Z,16.88
2022-08-11T07:19:10.554Z,16.88
2022-08-11T07:20:11.542Z,16.88
2022-08-11T07:22:01.314Z,16.88
2022-08-11T07:22:11.544Z,16.88
2022-08-11T07:23:10.507Z,16.88
2022-08-11T07:24:10.484Z,16.88
2022-08-11T07:25:10.509Z,16.88
2022-08-11T07:26:10.501Z,16.88
2022-08-11T07:27:10.464Z,16.88
2022-08-11T07:28:10.458Z,16.88
2022-08-11T07:29:10.482Z,16.88
2022-08-11T07:30:10.426Z,16.88
2022-08-11T07:31:10.470Z,16.88
2022-08-11T07:32:10.432Z,16.88
2022-08-11T07:33:10.407Z,16.88
2022-08-11T07:34:14.628Z,16.88
2022-08-11T07:35:11.379Z,16.88
2022-08-11T07:36:10.363Z,16.88
2022-08-11T07:37:10.394Z,16.88
2022-08-11T07:38:10.328Z,16.88
2022-08-11T07:39:10.386Z,16.88
2022-08-11T07:40:10.316Z,16.88
2022-08-11T07:41:10.437Z,16.88
2022-08-11T07:42:10.307Z,16.88
2022-08-11T07:43:10.309Z,16.88
2022-08-11T07:44:10.312Z,16.88
2022-08-11T07:45:10.248Z,16.88
2022-08-11T07:46:10.257Z,16.88
2022-08-11T07:47:10.303Z,16.88
2022-08-11T07:48:10.237Z,16.88
2022-08-11T07:49:10.236Z,16.88
2022-08-11T07:50:10.194Z,16.88
2022-08-11T07:51:10.182Z,16.88
2022-08-11T07:52:10.171Z,16.88
2022-08-11T07:53:10.210Z,16.88
2022-08-11T07:54:16.823Z,16.88
2022-08-11T07:55:11.137Z,16.88
2022-08-11T07:56:10.129Z,16.88
2022-08-11T07:57:47.242Z,16.88
2022-08-11T07:58:16.612Z,16.88
2022-08-11T07:59:11.132Z,16.88
2022-08-11T08:00:10.257Z,16.88
2022-08-11T08:01:22.074Z,16.88
2022-08-11T08:02:11.120Z,16.88
2022-08-11T08:03:10.072Z,16.88
2022-08-11T08:04:10.566Z,16.88
2022-08-11T08:05:10.045Z,16.88
2022-08-11T08:06:15.398Z,16.88
2022-08-11T08:07:11.027Z,16.88
2022-08-11T08:08:09.998Z,16.88
2022-08-11T08:09:10.017Z,16.88
2022-08-11T08:10:09.988Z,16.88
2022-08-11T08:11:09.986Z,16.88
2022-08-11T08:12:10.027Z,16.88
2022-08-11T08:13:09.942Z,16.88
2022-08-11T08:14:09.941Z,16.88
2022-08-11T08:15:09.959Z,16.88
2022-08-11T08:16:09.947Z,16.88
2022-08-11T08:17:09.896Z,16.88
2022-08-11T08:18:25.595Z,16.88
2022-08-11T08:19:10.892Z,16.88
2022-08-11T08:20:09.888Z,16.88
2022-08-11T08:21:09.896Z,16.88
2022-08-11T08:22:11.159Z,16.88
2022-08-11T08:23:10.836Z,16.88
2022-08-11T08:24:09.817Z,16.88
2022-08-11T08:25:09.841Z,16.88
2022-08-11T08:26:16.644Z,16.88
2022-08-11T08:27:10.814Z,16.88
2022-08-11T08:28:09.807Z,16.88
2022-08-11T08:29:09.775Z,16.88
2022-08-11T08:30:09.752Z,16.88
2022-08-11T08:31:09.779Z,16.88
2022-08-11T08:32:09.770Z,16.88
2022-08-11T08:33:09.729Z,16.88
2022-08-11T08:34:09.738Z,16.88
2022-08-11T08:35:09.695Z,16.88
2022-08-11T08:36:09.744Z,16.88
2022-08-11T08:37:15.902Z,16.88
2022-08-11T08:38:10.730Z,16.88
2022-08-11T08:39:09.679Z,16.88
2022-08-11T08:40:09.685Z,16.88
2022-08-11T08:41:09.629Z,16.88
2022-08-11T08:42:09.691Z,16.88
2022-08-11T08:43:09.644Z,16.88
2022-08-11T08:44:35.118Z,16.88
2022-08-11T08:45:10.584Z,16.88
2022-08-11T08:46:09.576Z,16.88
2022-08-11T08:47:09.624Z,16.88
2022-08-11T08:48:09.668Z,16.88
2022-08-11T08:49:09.593Z,16.88
2022-08-11T08:50:09.604Z,16.88
2022-08-11T08:51:11.022Z,16.88
2022-08-11T08:52:21.621Z,16.88
2022-08-11T08:53:10.517Z,16.88
2022-08-11T08:54:09.509Z,16.88
2022-08-11T08:55:09.481Z,16.88
2022-08-11T08:56:09.500Z,16.88
2022-08-11T08:57:09.504Z,16.88
2022-08-11T08:58:09.489Z,16.88
2022-08-11T08:59:09.503Z,16.88
2022-08-11T09:00:12.639Z,16.88
2022-08-11T09:01:10.511Z,16.88
2022-08-11T09:02:09.416Z,16.88
2022-08-11T09:03:38.116Z,16.88
2022-08-11T09:04:12.325Z,16.88
2022-08-11T09:05:09.407Z,16.88
2022-08-11T09:06:09.357Z,16.88
2022-08-11T09:07:09.361Z,16.88
2022-08-11T09:08:09.367Z,16.88
2022-08-11T09:09:09.325Z,16.88
2022-08-11T09:10:09.374Z,16.88
2022-08-11T09:11:13.433Z,16.88
2022-08-11T09:12:09.295Z,16.88
2022-08-11T09:13:09.301Z,16.88
2022-08-11T09:14:12.979Z,16.88
2022-08-11T09:15:10.657Z,16.88
2022-08-11T09:16:09.243Z,16.88
2022-08-11T09:17:09.260Z,16.88
2022-08-11T09:18:09.264Z,16.88
2022-08-11T09:19:09.236Z,16.88
2022-08-11T09:20:09.238Z,16.88
2022-08-11T09:21:09.189Z,16.88
2022-08-11T09:22:09.190Z,16.88
2022-08-11T09:24:17.051Z,16.88
2022-08-11T09:25:10.190Z,16.88
2022-08-11T09:26:09.142Z,16.88
2022-08-11T09:27:09.125Z,16.88
2022-08-11T09:28:09.121Z,16.88
2022-08-11T09:29:09.142Z,16.88
2022-08-11T09:30:09.099Z,16.88
2022-08-11T09:31:09.105Z,16.88
2022-08-11T09:32:09.121Z,16.88
2022-08-11T09:33:09.072Z,16.88
2022-08-11T09:34:09.071Z,16.88
2022-08-11T09:35:09.045Z,16.88
2022-08-11T09:36:09.081Z,16.88
2022-08-11T09:37:09.015Z,16.88
2022-08-11T09:38:09.000Z,16.88
2022-08-11T09:39:09.101Z,16.88
2022-08-11T09:40:08.978Z,16.88
2022-08-11T09:41:08.986Z,16.88
2022-08-11T09:42:11.433Z,16.88
2022-08-11T09:43:09.987Z,16.88
2022-08-11T09:44:09.009Z,16.88
2022-08-11T09:45:08.940Z,16.88
2022-08-11T09:46:08.916Z,16.88
2022-08-11T09:47:08.963Z,16.88
2022-08-11T09:48:08.921Z,16.88
2022-08-11T09:49:08.900Z,16.88
2022-08-11T09:50:08.876Z,16.88
2022-08-11T09:51:08.879Z,16.88
2022-08-11T09:52:08.895Z,16.88
2022-08-11T09:53:37.343Z,16.88
2022-08-11T09:54:09.824Z,16.88
2022-08-11T09:55:08.815Z,16.88
2022-08-11T09:56:08.877Z,16.88
2022-08-11T09:57:08.812Z,16.88
2022-08-11T09:58:08.797Z,16.88
2022-08-11T09:59:08.806Z,16.88
2022-08-11T10:00:12.496Z,16.88
2022-08-11T10:01:08.830Z,16.88
2022-08-11T10:02:08.740Z,16.88
2022-08-11T10:03:08.762Z,16.88
2022-08-11T10:04:08.725Z,16.88
2022-08-11T10:05:08.706Z,16.88
2022-08-11T10:06:08.711Z,16.88
2022-08-11T10:07:08.710Z,16.88
2022-08-11T10:08:08.696Z,16.88
2022-08-11T10:09:08.668Z,16.88
2022-08-11T10:10:08.662Z,16.88
2022-08-11T10:11:08.680Z,16.88
2022-08-11T10:12:08.678Z,16.88
2022-08-11T10:13:43.611Z,16.88
2022-08-11T10:14:32.882Z,16.88
2022-08-11T10:15:09.679Z,16.88
2022-08-11T10:16:15.874Z,16.88
2022-08-11T10:17:09.660Z,16.88
2022-08-11T10:18:08.583Z,16.88
2022-08-11T10:19:08.561Z,16.88
2022-08-11T10:20:08.540Z,16.88
2022-08-11T10:21:08.548Z,16.88
2022-08-11T10:22:08.544Z,16.88
2022-08-11T10:23:08.555Z,16.88
2022-08-11T10:24:08.497Z,16.88
2022-08-11T10:25:08.509Z,16.88
2022-08-11T10:26:08.510Z,16.88
2022-08-11T10:27:08.478Z,16.88
2022-08-11T10:28:32.844Z,16.88
2022-08-11T10:29:13.517Z,16.88
2022-08-11T10:30:08.470Z,16.88
2022-08-11T10:31:12.575Z,16.88
2022-08-11T10:32:09.441Z,16.88
2022-08-11T10:33:08.417Z,16.88
2022-08-11T10:34:08.426Z,16.88
2022-08-11T10:35:08.429Z,16.88
2022-08-11T10:36:16.693Z,16.88
2022-08-11T10:37:14.930Z,16.88
2022-08-11T10:38:10.054Z,16.88
2022-08-11T10:39:08.393Z,16.88
2022-08-11T10:40:08.327Z,16.88
2022-08-11T10:41:08.307Z,16.88
2022-08-11T10:42:12.212Z,16.88
2022-08-11T10:43:09.322Z,16.88
2022-08-11T10:44:08.317Z,16.88
2022-08-11T10:45:08.293Z,16.88
2022-08-11T10:46:08.252Z,16.88
2022-08-11T10:47:08.280Z,16.88
2022-08-11T10:48:12.132Z,16.88
2022-08-11T10:49:09.241Z,16.88
2022-08-11T10:50:08.226Z,16.88
2022-08-11T10:51:08.233Z,16.88
2022-08-11T10:52:08.206Z,16.88
2022-08-11T10:53:08.226Z,16.88
2022-08-11T10:54:11.407Z,16.88
2022-08-11T10:55:08.193Z,16.88
2022-08-11T10:56:08.173Z,16.88
2022-08-11T10:57:08.131Z,16.88
2022-08-11T10:58:08.156Z,16.88
2022-08-11T10:59:08.127Z,16.88
2022-08-11T11:00:08.108Z,16.88
2022-08-11T11:01:08.163Z,16.88
2022-08-11T11:02:08.079Z,16.88
2022-08-11T11:03:22.710Z,16.88
2022-08-11T11:04:09.087Z,16.88
2022-08-11T11:05:08.074Z,16.88
2022-08-11T11:06:12.691Z,16.88
2022-08-11T11:07:09.023Z,16.88
2022-08-11T11:08:08.013Z,16.88
2022-08-11T11:09:07.999Z,16.88
2022-08-11T11:10:07.993Z,16.88
2022-08-11T11:11:08.010Z,16.88
2022-08-11T11:12:07.993Z,16.88
2022-08-11T11:13:07.978Z,16.88
2022-08-11T11:14:07.943Z,16.88
2022-08-11T11:15:08.430Z,16.88
2022-08-11T11:16:08.934Z,16.88
2022-08-11T11:17:07.951Z,16.88
2022-08-11T11:18:07.921Z,16.88
2022-08-11T11:19:07.889Z,16.88
2022-08-11T11:20:07.922Z,16.88
2022-08-11T11:21:08.883Z,16.88
2022-08-11T11:22:07.871Z,16.88
2022-08-11T11:23:07.873Z,22.50
2022-08-11T11:24:07.856Z,22.50
2022-08-11T11:25:07.891Z,22.50
2022-08-11T11:26:07.809Z,22.50
2022-08-11T11:27:07.805Z,22.50
2022-08-11T11:28:07.821Z,16.88
2022-08-11T11:29:07.795Z,22.50
2022-08-11T11:30:07.789Z,22.50
2022-08-11T11:31:07.773Z,22.50
2022-08-11T11:32:07.766Z,28.12
2022-08-11T11:33:07.748Z,28.12
2022-08-11T11:34:12.637Z,33.75
2022-08-11T11:35:08.721Z,39.38
2022-08-11T11:36:07.733Z,33.75
2022-08-11T11:37:07.742Z,33.75
2022-08-11T11:38:11.808Z,28.12
2022-08-11T11:39:08.768Z,22.50
2022-08-11T11:40:07.668Z,28.12
2022-08-11T11:41:07.660Z,39.38
2022-08-11T11:42:07.668Z,45.00
2022-08-11T11:43:07.651Z,45.00
2022-08-11T11:44:07.617Z,39.38
2022-08-11T11:45:07.634Z,28.12
2022-08-11T11:46:07.636Z,28.12
2022-08-11T11:47:07.613Z,22.50
2022-08-11T11:48:07.621Z,22.50
2022-08-11T11:49:15.811Z,22.50
2022-08-11T11:50:08.562Z,22.50
2022-08-11T11:51:07.544Z,22.50
2022-08-11T11:52:07.570Z,22.50
2022-08-11T11:53:07.543Z,22.50
2022-08-11T11:54:07.508Z,22.50
2022-08-11T11:55:07.493Z,22.50
2022-08-11T11:56:07.501Z,22.50
2022-08-11T11:57:07.514Z,22.50
2022-08-11T11:58:07.472Z,28.12
2022-08-11T11:59:07.480Z,22.50
2022-08-11T12:00:07.441Z,22.50
2022-08-11T12:01:07.430Z,22.50
2022-08-11T12:02:11.887Z,22.50
2022-08-11T12:03:08.475Z,22.50
2022-08-11T12:04:07.419Z,22.50
2022-08-11T12:05:07.427Z,28.12
2022-08-11T12:06:07.370Z,28.12
2022-08-11T12:07:07.371Z,28.12
2022-08-11T12:08:12.925Z,28.12
2022-08-11T12:09:08.373Z,22.50
2022-08-11T12:10:07.373Z,22.50
2022-08-11T12:11:08.119Z,22.50
2022-08-11T12:12:07.304Z,22.50
2022-08-11T12:13:07.317Z,22.50
2022-08-11T12:14:10.674Z,22.50
2022-08-11T12:15:07.325Z,22.50
2022-08-11T12:16:34.632Z,22.50
2022-08-11T12:17:08.300Z,22.50
2022-08-11T12:18:07.247Z,22.50
2022-08-11T12:19:07.253Z,22.50
2022-08-11T12:20:31.739Z,22.50
2022-08-11T12:21:08.205Z,22.50
2022-08-11T12:22:07.199Z,22.50
2022-08-11T12:23:07.219Z,22.50
2022-08-11T12:24:07.247Z,33.75
2022-08-11T12:25:07.179Z,39.38
2022-08-11T12:26:26.520Z,39.38
2022-08-11T12:27:16.986Z,28.12
2022-08-11T12:28:08.183Z,28.12
2022-08-11T12:29:07.118Z,22.50
2022-08-11T12:30:07.139Z,22.50
2022-08-11T12:31:07.104Z,22.50
2022-08-11T12:32:07.104Z,22.50
2022-08-11T12:33:07.077Z,22.50
2022-08-11T12:34:07.068Z,22.50
2022-08-11T12:35:07.075Z,28.12
2022-08-11T12:36:07.071Z,28.12
2022-08-11T12:37:07.044Z,28.12
2022-08-11T12:38:10.715Z,33.75
2022-08-11T12:39:23.419Z,33.75
2022-08-11T12:40:37.951Z,28.12
2022-08-11T12:41:16.030Z,28.12
2022-08-11T12:42:08.004Z,28.12
2022-08-11T12:43:20.867Z,28.12
2022-08-11T12:44:07.979Z,28.12
2022-08-11T12:45:06.943Z,28.12
2022-08-11T12:46:07.927Z,28.12
2022-08-11T12:47:06.938Z,22.50
2022-08-11T12:48:12.259Z,22.50
2022-08-11T12:49:07.943Z,28.12
2022-08-11T12:50:06.895Z,28.12
2022-08-11T12:51:08.619Z,28.12
2022-08-11T12:52:13.815Z,28.12
2022-08-11T12:53:07.875Z,28.12
2022-08-11T12:54:06.861Z,28.12
2022-08-11T12:55:12.560Z,28.12
2022-08-11T12:56:08.054Z,33.75
2022-08-11T12:57:06.814Z,33.75
2022-08-11T12:58:06.813Z,33.75
2022-08-11T12:59:06.793Z,33.75
2022-08-11T13:00:06.798Z,28.12
2022-08-11T13:01:06.799Z,28.12
2022-08-11T13:02:07.757Z,28.12
2022-08-11T13:03:06.746Z,28.12
2022-08-11T13:04:06.754Z,33.75